sensor_id;sensor_type;location;lat;lon;timestamp;pressure;altitude;pressure_sealevel;temperature;humidity
20444;BME280;10381;53.730;10.010;2023-11-21T00:00:45;99775.09;;;6.88;100.00
20444;BME280;10381;53.730;10.010;2023-11-21T00:04:45;99787.69;;;6.85;100.00
20444;BME280;10381;53.730;10.010;2023-11-21T00:08:46;99793.94;;;6.83;100.00
20444;BME280;10381;53.730;10.010;2023-11-21T00:12:46;99795.69;;;6.73;100.00
20444;BME280;10381;53.730;10.010;2023-11-21T00:16:48;99803.88;;;6.80;100.00
20444;BME280;10381;53.730;10.010;2023-11-21T00:20:48;99814.69;;;6.77;100.00
20444;BME280;10381;53.730;10.010;2023-11-21T00:24:49;99820.09;;;6.75;100.00
20444;BME280;10381;53.730;10.010;2023-11-21T00:28:50;99833.94;;;6.77;100.00
20444;BME280;10381;53.730;10.010;2023-11-21T00:32:50;99837.69;;;6.75;100.00
20444;BME280;10381;53.730;10.010;2023-11-21T00:36:50;99842.41;;;6.71;100.00
20444;BME280;10381;53.730;10.010;2023-11-21T00:40:51;99838.78;;;6.72;100.00
20444;BME280;10381;53.730;10.010;2023-11-21T00:44:53;99854.03;;;6.69;100.00
20444;BME280;10381;53.730;10.010;2023-11-21T00:48:53;99866.44;;;6.57;100.00
20444;BME280;10381;53.730;10.010;2023-11-21T00:52:54;99871.56;;;6.58;100.00
20444;BME280;10381;53.730;10.010;2023-11-21T00:56:54;99887.31;;;6.49;100.00
20444;BME280;10381;53.730;10.010;2023-11-21T01:00:54;99894.78;;;6.44;100.00
20444;BME280;10381;53.730;10.010;2023-11-21T01:04:54;99913.19;;;6.44;100.00
20444;BME280;10381;53.730;10.010;2023-11-21T01:08:55;99924.81;;;6.41;100.00
20444;BME280;10381;53.730;10.010;2023-11-21T01:12:55;99935.44;;;6.39;100.00
20444;BME280;10381;53.730;10.010;2023-11-21T01:16:56;99948.59;;;6.39;100.00
20444;BME280;10381;53.730;10.010;2023-11-21T01:20:56;99967.41;;;6.35;100.00
20444;BME280;10381;53.730;10.010;2023-11-21T01:24:57;99975.78;;;6.40;100.00
20444;BME280;10381;53.730;10.010;2023-11-21T01:28:58;100005.31;;;6.32;100.00
20444;BME280;10381;53.730;10.010;2023-11-21T01:32:58;100021.09;;;6.32;100.00
20444;BME280;10381;53.730;10.010;2023-11-21T01:36:59;100043.88;;;6.22;100.00
20444;BME280;10381;53.730;10.010;2023-11-21T01:40:59;100072.34;;;6.17;100.00
20444;BME280;10381;53.730;10.010;2023-11-21T01:45:01;100106.81;;;6.14;100.00
20444;BME280;10381;53.730;10.010;2023-11-21T01:49:05;100128.56;;;6.16;100.00
20444;BME280;10381;53.730;10.010;2023-11-21T01:53:05;100150.19;;;6.08;100.00
20444;BME280;10381;53.730;10.010;2023-11-21T01:57:06;100194.31;;;6.05;100.00
20444;BME280;10381;53.730;10.010;2023-11-21T02:01:07;100216.28;;;6.04;100.00
20444;BME280;10381;53.730;10.010;2023-11-21T02:05:07;100247.00;;;5.92;100.00
20444;BME280;10381;53.730;10.010;2023-11-21T02:13:19;100302.59;;;5.98;100.00
20444;BME280;10381;53.730;10.010;2023-11-21T02:17:19;100318.16;;;6.02;100.00
20444;BME280;10381;53.730;10.010;2023-11-21T02:21:20;100344.81;;;5.97;100.00
20444;BME280;10381;53.730;10.010;2023-11-21T02:25:20;100360.44;;;5.98;100.00
20444;BME280;10381;53.730;10.010;2023-11-21T02:29:21;100382.44;;;5.97;100.00
20444;BME280;10381;53.730;10.010;2023-11-21T02:33:28;100405.59;;;5.92;100.00
20444;BME280;10381;53.730;10.010;2023-11-21T02:37:28;100420.41;;;5.93;100.00
20444;BME280;10381;53.730;10.010;2023-11-21T02:41:29;100443.47;;;5.90;100.00
20444;BME280;10381;53.730;10.010;2023-11-21T02:45:29;100468.78;;;5.91;100.00
20444;BME280;10381;53.730;10.010;2023-11-21T02:49:29;100491.72;;;5.89;100.00
20444;BME280;10381;53.730;10.010;2023-11-21T02:53:30;100510.03;;;5.90;100.00
20444;BME280;10381;53.730;10.010;2023-11-21T02:57:31;100526.63;;;5.91;100.00
20444;BME280;10381;53.730;10.010;2023-11-21T03:01:31;100541.69;;;5.89;100.00
20444;BME280;10381;53.730;10.010;2023-11-21T03:05:31;100549.56;;;5.89;100.00
20444;BME280;10381;53.730;10.010;2023-11-21T03:09:32;100559.25;;;5.88;100.00
20444;BME280;10381;53.730;10.010;2023-11-21T03:13:32;100572.50;;;5.87;100.00
20444;BME280;10381;53.730;10.010;2023-11-21T03:17:33;100584.06;;;5.84;100.00
20444;BME280;10381;53.730;10.010;2023-11-21T03:21:36;100581.44;;;5.84;100.00
20444;BME280;10381;53.730;10.010;2023-11-21T03:25:36;100607.75;;;5.84;100.00
20444;BME280;10381;53.730;10.010;2023-11-21T03:29:36;100625.94;;;5.87;100.00
20444;BME280;10381;53.730;10.010;2023-11-21T03:33:37;100637.06;;;5.91;100.00
20444;BME280;10381;53.730;10.010;2023-11-21T03:37:37;100654.53;;;5.92;100.00
20444;BME280;10381;53.730;10.010;2023-11-21T03:41:41;100673.69;;;5.94;100.00
20444;BME280;10381;53.730;10.010;2023-11-21T03:45:41;100689.03;;;5.87;100.00
20444;BME280;10381;53.730;10.010;2023-11-21T03:49:42;100696.63;;;5.92;100.00
20444;BME280;10381;53.730;10.010;2023-11-21T03:53:42;100725.41;;;5.93;100.00
20444;BME280;10381;53.730;10.010;2023-11-21T03:57:42;100733.44;;;5.92;100.00
20444;BME280;10381;53.730;10.010;2023-11-21T04:01:42;100751.66;;;5.95;100.00
20444;BME280;10381;53.730;10.010;2023-11-21T04:05:43;100766.97;;;5.88;100.00
20444;BME280;10381;53.730;10.010;2023-11-21T04:09:43;100767.47;;;5.93;100.00
20444;BME280;10381;53.730;10.010;2023-11-21T04:13:43;100773.78;;;5.91;100.00
20444;BME280;10381;53.730;10.010;2023-11-21T04:17:44;100792.31;;;5.89;100.00
20444;BME280;10381;53.730;10.010;2023-11-21T04:21:45;100805.34;;;5.91;100.00
20444;BME280;10381;53.730;10.010;2023-11-21T04:25:46;100815.25;;;5.87;100.00
20444;BME280;10381;53.730;10.010;2023-11-21T04:29:46;100836.28;;;5.87;100.00
20444;BME280;10381;53.730;10.010;2023-11-21T04:33:47;100845.31;;;5.83;100.00
20444;BME280;10381;53.730;10.010;2023-11-21T04:37:47;100863.19;;;5.78;100.00
20444;BME280;10381;53.730;10.010;2023-11-21T04:41:47;100864.69;;;5.82;100.00
20444;BME280;10381;53.730;10.010;2023-11-21T04:45:48;100869.72;;;5.85;100.00
20444;BME280;10381;53.730;10.010;2023-11-21T04:49:48;100889.19;;;5.83;100.00
20444;BME280;10381;53.730;10.010;2023-11-21T04:53:48;100901.50;;;5.82;100.00
20444;BME280;10381;53.730;10.010;2023-11-21T04:57:48;100921.66;;;5.82;100.00
20444;BME280;10381;53.730;10.010;2023-11-21T05:01:49;100924.09;;;5.85;100.00
20444;BME280;10381;53.730;10.010;2023-11-21T05:05:49;100935.25;;;5.88;100.00
20444;BME280;10381;53.730;10.010;2023-11-21T05:09:49;100948.38;;;5.88;100.00
20444;BME280;10381;53.730;10.010;2023-11-21T05:13:50;100965.00;;;5.89;100.00
20444;BME280;10381;53.730;10.010;2023-11-21T05:17:50;100973.19;;;5.84;100.00
20444;BME280;10381;53.730;10.010;2023-11-21T05:21:52;100972.81;;;5.90;100.00
20444;BME280;10381;53.730;10.010;2023-11-21T05:25:52;100987.75;;;5.90;100.00
20444;BME280;10381;53.730;10.010;2023-11-21T05:29:52;100988.97;;;5.84;100.00
20444;BME280;10381;53.730;10.010;2023-11-21T05:33:53;100993.19;;;5.87;100.00
20444;BME280;10381;53.730;10.010;2023-11-21T05:37:53;101003.06;;;5.83;100.00
20444;BME280;10381;53.730;10.010;2023-11-21T05:41:53;101008.31;;;5.83;100.00
20444;BME280;10381;53.730;10.010;2023-11-21T05:45:54;101025.78;;;5.84;100.00
20444;BME280;10381;53.730;10.010;2023-11-21T05:49:54;101034.63;;;5.83;100.00
20444;BME280;10381;53.730;10.010;2023-11-21T05:53:54;101053.88;;;5.84;100.00
20444;BME280;10381;53.730;10.010;2023-11-21T05:57:54;101058.00;;;5.88;100.00
20444;BME280;10381;53.730;10.010;2023-11-21T06:01:55;101069.16;;;5.91;100.00
20444;BME280;10381;53.730;10.010;2023-11-21T06:05:55;101077.78;;;5.93;100.00
20444;BME280;10381;53.730;10.010;2023-11-21T06:09:55;101078.47;;;5.97;100.00
20444;BME280;10381;53.730;10.010;2023-11-21T06:13:56;101076.19;;;5.91;100.00
20444;BME280;10381;53.730;10.010;2023-11-21T06:17:58;101075.44;;;5.89;100.00
20444;BME280;10381;53.730;10.010;2023-11-21T06:21:59;101065.41;;;5.81;100.00
20444;BME280;10381;53.730;10.010;2023-11-21T06:26:01;101057.75;;;5.78;100.00
20444;BME280;10381;53.730;10.010;2023-11-21T06:30:02;101060.06;;;5.83;100.00
20444;BME280;10381;53.730;10.010;2023-11-21T06:34:02;101070.94;;;5.91;100.00
20444;BME280;10381;53.730;10.010;2023-11-21T06:38:03;101080.34;;;5.95;100.00
20444;BME280;10381;53.730;10.010;2023-11-21T06:42:03;101103.72;;;6.00;100.00
20444;BME280;10381;53.730;10.010;2023-11-21T06:46:04;101129.00;;;6.02;100.00
20444;BME280;10381;53.730;10.010;2023-11-21T06:50:05;101150.78;;;6.04;100.00
20444;BME280;10381;53.730;10.010;2023-11-21T06:54:07;101153.28;;;6.06;100.00
20444;BME280;10381;53.730;10.010;2023-11-21T06:58:07;101153.22;;;6.07;100.00
20444;BME280;10381;53.730;10.010;2023-11-21T07:02:07;101161.09;;;6.07;100.00
20444;BME280;10381;53.730;10.010;2023-11-21T07:06:08;101149.75;;;6.07;100.00
20444;BME280;10381;53.730;10.010;2023-11-21T07:10:09;101158.69;;;6.04;100.00
20444;BME280;10381;53.730;10.010;2023-11-21T07:14:09;101161.19;;;6.06;100.00
20444;BME280;10381;53.730;10.010;2023-11-21T07:18:09;101170.88;;;6.05;100.00
20444;BME280;10381;53.730;10.010;2023-11-21T07:22:09;101163.06;;;6.04;100.00
20444;BME280;10381;53.730;10.010;2023-11-21T07:26:10;101169.19;;;6.04;100.00
20444;BME280;10381;53.730;10.010;2023-11-21T07:30:11;101163.72;;;6.07;100.00
20444;BME280;10381;53.730;10.010;2023-11-21T07:34:13;101172.38;;;6.09;100.00
20444;BME280;10381;53.730;10.010;2023-11-21T07:38:13;101174.88;;;6.11;100.00
20444;BME280;10381;53.730;10.010;2023-11-21T07:42:13;101181.09;;;6.10;100.00
20444;BME280;10381;53.730;10.010;2023-11-21T07:46:14;101172.25;;;6.11;100.00
20444;BME280;10381;53.730;10.010;2023-11-21T07:50:14;101186.28;;;6.11;100.00
20444;BME280;10381;53.730;10.010;2023-11-21T07:54:14;101173.13;;;6.11;100.00
20444;BME280;10381;53.730;10.010;2023-11-21T07:58:15;101187.41;;;6.07;100.00
20444;BME280;10381;53.730;10.010;2023-11-21T08:02:16;101189.56;;;6.01;100.00
20444;BME280;10381;53.730;10.010;2023-11-21T08:06:17;101188.81;;;5.98;100.00
20444;BME280;10381;53.730;10.010;2023-11-21T08:10:18;101186.09;;;6.00;100.00
20444;BME280;10381;53.730;10.010;2023-11-21T08:14:18;101179.44;;;5.94;100.00
20444;BME280;10381;53.730;10.010;2023-11-21T08:18:20;101167.59;;;6.02;100.00
20444;BME280;10381;53.730;10.010;2023-11-21T08:22:21;101178.69;;;6.07;100.00
20444;BME280;10381;53.730;10.010;2023-11-21T08:26:22;101176.97;;;6.06;100.00
20444;BME280;10381;53.730;10.010;2023-11-21T08:30:23;101178.84;;;6.04;100.00
20444;BME280;10381;53.730;10.010;2023-11-21T08:34:24;101182.84;;;5.96;100.00
20444;BME280;10381;53.730;10.010;2023-11-21T08:38:25;101182.22;;;5.91;100.00
20444;BME280;10381;53.730;10.010;2023-11-21T08:42:26;101200.63;;;5.91;100.00
20444;BME280;10381;53.730;10.010;2023-11-21T08:46:29;101200.53;;;5.93;100.00
20444;BME280;10381;53.730;10.010;2023-11-21T08:50:30;101215.66;;;6.04;100.00
20444;BME280;10381;53.730;10.010;2023-11-21T08:54:31;101233.72;;;6.10;100.00
20444;BME280;10381;53.730;10.010;2023-11-21T08:58:31;101239.91;;;6.23;100.00
20444;BME280;10381;53.730;10.010;2023-11-21T09:02:39;101260.63;;;6.42;100.00
20444;BME280;10381;53.730;10.010;2023-11-21T09:06:42;101269.75;;;6.36;100.00
20444;BME280;10381;53.730;10.010;2023-11-21T09:10:42;101273.50;;;6.32;100.00
20444;BME280;10381;53.730;10.010;2023-11-21T09:14:45;101282.63;;;6.41;100.00
20444;BME280;10381;53.730;10.010;2023-11-21T09:18:45;101290.34;;;6.30;100.00
20444;BME280;10381;53.730;10.010;2023-11-21T09:22:52;101288.88;;;6.26;100.00
20444;BME280;10381;53.730;10.010;2023-11-21T09:26:53;101292.81;;;6.18;100.00
20444;BME280;10381;53.730;10.010;2023-11-21T09:30:54;101294.41;;;6.07;100.00
20444;BME280;10381;53.730;10.010;2023-11-21T09:34:54;101285.94;;;5.87;100.00
20444;BME280;10381;53.730;10.010;2023-11-21T09:38:58;101278.78;;;5.75;100.00
20444;BME280;10381;53.730;10.010;2023-11-21T09:42:58;101295.88;;;5.82;100.00
20444;BME280;10381;53.730;10.010;2023-11-21T09:46:59;101302.47;;;5.89;100.00
20444;BME280;10381;53.730;10.010;2023-11-21T09:51:00;101321.78;;;5.88;100.00
20444;BME280;10381;53.730;10.010;2023-11-21T09:55:06;101331.41;;;6.04;100.00
20444;BME280;10381;53.730;10.010;2023-11-21T09:59:07;101338.09;;;5.95;100.00
20444;BME280;10381;53.730;10.010;2023-11-21T10:03:11;101340.53;;;6.12;100.00
20444;BME280;10381;53.730;10.010;2023-11-21T10:07:13;101347.78;;;6.23;100.00
20444;BME280;10381;53.730;10.010;2023-11-21T10:11:17;101351.34;;;6.22;100.00
20444;BME280;10381;53.730;10.010;2023-11-21T10:15:17;101371.34;;;6.10;100.00
20444;BME280;10381;53.730;10.010;2023-11-21T10:19:18;101377.84;;;6.05;100.00
20444;BME280;10381;53.730;10.010;2023-11-21T10:23:21;101395.38;;;5.74;100.00
20444;BME280;10381;53.730;10.010;2023-11-21T10:27:22;101389.84;;;5.79;100.00
20444;BME280;10381;53.730;10.010;2023-11-21T10:31:23;101376.13;;;5.73;100.00
20444;BME280;10381;53.730;10.010;2023-11-21T10:35:48;101373.13;;;5.65;100.00
20444;BME280;10381;53.730;10.010;2023-11-21T10:39:51;101372.25;;;5.65;100.00
20444;BME280;10381;53.730;10.010;2023-11-21T10:43:53;101374.13;;;5.63;100.00
20444;BME280;10381;53.730;10.010;2023-11-21T10:47:53;101375.16;;;5.60;100.00
20444;BME280;10381;53.730;10.010;2023-11-21T10:51:54;101381.09;;;5.64;100.00
20444;BME280;10381;53.730;10.010;2023-11-21T10:56:05;101392.53;;;5.63;100.00
20444;BME280;10381;53.730;10.010;2023-11-21T11:00:07;101401.03;;;5.52;100.00
20444;BME280;10381;53.730;10.010;2023-11-21T11:04:13;101399.44;;;5.49;100.00
20444;BME280;10381;53.730;10.010;2023-11-21T11:08:18;101407.56;;;5.61;100.00
20444;BME280;10381;53.730;10.010;2023-11-21T11:12:19;101405.50;;;5.66;100.00
20444;BME280;10381;53.730;10.010;2023-11-21T11:16:20;101420.09;;;5.55;100.00
20444;BME280;10381;53.730;10.010;2023-11-21T11:20:20;101412.06;;;5.59;100.00
20444;BME280;10381;53.730;10.010;2023-11-21T11:24:59;101414.44;;;5.47;100.00
20444;BME280;10381;53.730;10.010;2023-11-21T11:29:21;101413.59;;;5.47;100.00
20444;BME280;10381;53.730;10.010;2023-11-21T11:33:43;101433.09;;;5.43;100.00
20444;BME280;10381;53.730;10.010;2023-11-21T11:37:45;101440.28;;;5.55;100.00
20444;BME280;10381;53.730;10.010;2023-11-21T11:41:45;101453.28;;;5.58;100.00
20444;BME280;10381;53.730;10.010;2023-11-21T11:45:47;101450.28;;;5.64;100.00
20444;BME280;10381;53.730;10.010;2023-11-21T11:50:11;101457.91;;;5.69;100.00
20444;BME280;10381;53.730;10.010;2023-11-21T11:54:34;101454.63;;;5.65;100.00
20444;BME280;10381;53.730;10.010;2023-11-21T11:58:38;101459.25;;;5.60;100.00
20444;BME280;10381;53.730;10.010;2023-11-21T12:02:38;101463.09;;;5.54;100.00
20444;BME280;10381;53.730;10.010;2023-11-21T12:06:41;101473.53;;;5.40;100.00
20444;BME280;10381;53.730;10.010;2023-11-21T12:10:42;101466.94;;;5.49;100.00
20444;BME280;10381;53.730;10.010;2023-11-21T12:14:43;101466.91;;;5.33;100.00
20444;BME280;10381;53.730;10.010;2023-11-21T12:18:45;101470.38;;;5.33;100.00
20444;BME280;10381;53.730;10.010;2023-11-21T12:22:48;101477.94;;;5.40;100.00
20444;BME280;10381;53.730;10.010;2023-11-21T12:26:48;101480.50;;;5.41;100.00
20444;BME280;10381;53.730;10.010;2023-11-21T12:30:49;101482.69;;;5.49;100.00
20444;BME280;10381;53.730;10.010;2023-11-21T12:34:49;101476.50;;;5.50;100.00
20444;BME280;10381;53.730;10.010;2023-11-21T12:38:49;101480.66;;;5.38;100.00
20444;BME280;10381;53.730;10.010;2023-11-21T12:42:54;101477.09;;;5.39;100.00
20444;BME280;10381;53.730;10.010;2023-11-21T12:46:54;101480.50;;;5.41;100.00
20444;BME280;10381;53.730;10.010;2023-11-21T12:50:55;101484.53;;;5.31;100.00
20444;BME280;10381;53.730;10.010;2023-11-21T12:54:56;101477.78;;;5.27;100.00
20444;BME280;10381;53.730;10.010;2023-11-21T12:58:57;101474.13;;;5.29;100.00
20444;BME280;10381;53.730;10.010;2023-11-21T13:02:59;101473.56;;;5.24;100.00
20444;BME280;10381;53.730;10.010;2023-11-21T13:07:03;101464.22;;;5.19;100.00
20444;BME280;10381;53.730;10.010;2023-11-21T13:11:14;101470.66;;;5.13;100.00
20444;BME280;10381;53.730;10.010;2023-11-21T13:15:14;101477.69;;;5.12;100.00
20444;BME280;10381;53.730;10.010;2023-11-21T13:19:17;101484.81;;;5.10;100.00
20444;BME280;10381;53.730;10.010;2023-11-21T13:23:19;101488.19;;;5.12;100.00
20444;BME280;10381;53.730;10.010;2023-11-21T13:27:19;101486.94;;;5.20;100.00
20444;BME280;10381;53.730;10.010;2023-11-21T13:31:20;101479.66;;;5.25;100.00
20444;BME280;10381;53.730;10.010;2023-11-21T13:35:31;101499.06;;;5.22;100.00
20444;BME280;10381;53.730;10.010;2023-11-21T13:39:32;101516.06;;;5.15;100.00
20444;BME280;10381;53.730;10.010;2023-11-21T13:43:33;101508.09;;;5.17;100.00
20444;BME280;10381;53.730;10.010;2023-11-21T13:47:33;101516.31;;;5.10;100.00
20444;BME280;10381;53.730;10.010;2023-11-21T13:51:36;101528.63;;;5.10;100.00
20444;BME280;10381;53.730;10.010;2023-11-21T13:55:51;101555.19;;;5.04;100.00
20444;BME280;10381;53.730;10.010;2023-11-21T13:59:54;101577.38;;;4.98;100.00
20444;BME280;10381;53.730;10.010;2023-11-21T14:03:58;101584.25;;;4.83;100.00
20444;BME280;10381;53.730;10.010;2023-11-21T14:08:20;101587.44;;;4.73;100.00
20444;BME280;10381;53.730;10.010;2023-11-21T14:12:21;101584.75;;;4.74;100.00
20444;BME280;10381;53.730;10.010;2023-11-21T14:16:21;101581.50;;;4.69;100.00
20444;BME280;10381;53.730;10.010;2023-11-21T14:20:22;101579.19;;;4.63;100.00
20444;BME280;10381;53.730;10.010;2023-11-21T14:24:24;101590.91;;;4.56;100.00
20444;BME280;10381;53.730;10.010;2023-11-21T14:28:24;101593.47;;;4.57;100.00
20444;BME280;10381;53.730;10.010;2023-11-21T14:32:25;101592.69;;;4.55;100.00
20444;BME280;10381;53.730;10.010;2023-11-21T14:36:28;101597.94;;;4.55;100.00
20444;BME280;10381;53.730;10.010;2023-11-21T14:40:28;101592.59;;;4.57;100.00
20444;BME280;10381;53.730;10.010;2023-11-21T14:44:33;101603.97;;;4.57;100.00
20444;BME280;10381;53.730;10.010;2023-11-21T14:48:38;101595.63;;;4.49;100.00
20444;BME280;10381;53.730;10.010;2023-11-21T14:52:47;101602.88;;;4.44;100.00
20444;BME280;10381;53.730;10.010;2023-11-21T14:56:58;101607.66;;;4.36;100.00
20444;BME280;10381;53.730;10.010;2023-11-21T15:00:59;101605.31;;;4.30;100.00
20444;BME280;10381;53.730;10.010;2023-11-21T15:05:00;101601.09;;;4.27;100.00
20444;BME280;10381;53.730;10.010;2023-11-21T15:09:02;101609.94;;;4.24;100.00
20444;BME280;10381;53.730;10.010;2023-11-21T15:13:08;101606.38;;;4.25;100.00
20444;BME280;10381;53.730;10.010;2023-11-21T15:17:15;101608.94;;;4.27;100.00
20444;BME280;10381;53.730;10.010;2023-11-21T15:21:22;101606.94;;;4.32;100.00
20444;BME280;10381;53.730;10.010;2023-11-21T15:25:24;101603.75;;;4.25;100.00
20444;BME280;10381;53.730;10.010;2023-11-21T15:29:24;101618.50;;;4.28;100.00
20444;BME280;10381;53.730;10.010;2023-11-21T15:33:26;101614.97;;;4.29;100.00
20444;BME280;10381;53.730;10.010;2023-11-21T15:37:27;101613.19;;;4.30;100.00
20444;BME280;10381;53.730;10.010;2023-11-21T15:41:29;101612.72;;;4.21;100.00
20444;BME280;10381;53.730;10.010;2023-11-21T15:45:29;101613.00;;;4.15;100.00
20444;BME280;10381;53.730;10.010;2023-11-21T15:49:31;101618.00;;;4.02;100.00
20444;BME280;10381;53.730;10.010;2023-11-21T15:53:35;101629.91;;;3.72;100.00
20444;BME280;10381;53.730;10.010;2023-11-21T15:57:36;101645.13;;;3.45;100.00
20444;BME280;10381;53.730;10.010;2023-11-21T16:01:36;101637.81;;;3.32;100.00
20444;BME280;10381;53.730;10.010;2023-11-21T16:05:43;101656.09;;;3.13;100.00
20444;BME280;10381;53.730;10.010;2023-11-21T16:09:43;101655.50;;;3.07;100.00
20444;BME280;10381;53.730;10.010;2023-11-21T16:13:43;101663.16;;;2.91;100.00
20444;BME280;10381;53.730;10.010;2023-11-21T16:17:46;101661.13;;;2.97;100.00
20444;BME280;10381;53.730;10.010;2023-11-21T16:21:48;101662.59;;;2.84;100.00
20444;BME280;10381;53.730;10.010;2023-11-21T16:25:48;101665.13;;;2.86;100.00
20444;BME280;10381;53.730;10.010;2023-11-21T16:29:54;101663.75;;;2.77;100.00
20444;BME280;10381;53.730;10.010;2023-11-21T16:33:55;101667.59;;;2.68;100.00
20444;BME280;10381;53.730;10.010;2023-11-21T16:37:56;101665.16;;;2.64;100.00
20444;BME280;10381;53.730;10.010;2023-11-21T16:41:57;101665.16;;;2.64;100.00
20444;BME280;10381;53.730;10.010;2023-11-21T16:46:00;101675.25;;;2.73;100.00
20444;BME280;10381;53.730;10.010;2023-11-21T16:50:01;101687.06;;;2.61;100.00
20444;BME280;10381;53.730;10.010;2023-11-21T16:54:02;101690.50;;;2.63;100.00
20444;BME280;10381;53.730;10.010;2023-11-21T16:58:02;101698.28;;;2.65;100.00
20444;BME280;10381;53.730;10.010;2023-11-21T17:02:02;101694.03;;;2.62;100.00
20444;BME280;10381;53.730;10.010;2023-11-21T17:06:03;101698.88;;;2.49;100.00
20444;BME280;10381;53.730;10.010;2023-11-21T17:10:06;101709.22;;;2.52;100.00
20444;BME280;10381;53.730;10.010;2023-11-21T17:14:09;101717.97;;;2.51;100.00
20444;BME280;10381;53.730;10.010;2023-11-21T17:18:09;101733.56;;;2.54;100.00
20444;BME280;10381;53.730;10.010;2023-11-21T17:22:10;101728.81;;;2.64;100.00
20444;BME280;10381;53.730;10.010;2023-11-21T17:26:10;101744.16;;;2.51;100.00
20444;BME280;10381;53.730;10.010;2023-11-21T17:30:15;101737.31;;;2.47;100.00
20444;BME280;10381;53.730;10.010;2023-11-21T17:34:15;101748.50;;;2.29;100.00
20444;BME280;10381;53.730;10.010;2023-11-21T17:38:19;101756.38;;;2.29;100.00
20444;BME280;10381;53.730;10.010;2023-11-21T17:42:19;101760.91;;;2.24;100.00
20444;BME280;10381;53.730;10.010;2023-11-21T17:46:23;101775.84;;;1.97;100.00
20444;BME280;10381;53.730;10.010;2023-11-21T17:50:23;101791.81;;;1.89;100.00
20444;BME280;10381;53.730;10.010;2023-11-21T17:54:24;101795.97;;;1.69;100.00
20444;BME280;10381;53.730;10.010;2023-11-21T17:58:24;101813.34;;;1.70;100.00
20444;BME280;10381;53.730;10.010;2023-11-21T18:02:24;101821.16;;;1.72;100.00
20444;BME280;10381;53.730;10.010;2023-11-21T18:06:24;101828.41;;;1.64;100.00
20444;BME280;10381;53.730;10.010;2023-11-21T18:10:25;101824.22;;;1.58;100.00
20444;BME280;10381;53.730;10.010;2023-11-21T18:14:25;101834.81;;;1.54;100.00
20444;BME280;10381;53.730;10.010;2023-11-21T18:18:26;101832.34;;;1.76;100.00
20444;BME280;10381;53.730;10.010;2023-11-21T18:22:26;101824.22;;;2.08;100.00
20444;BME280;10381;53.730;10.010;2023-11-21T18:26:27;101825.41;;;2.47;100.00
20444;BME280;10381;53.730;10.010;2023-11-21T18:30:28;101819.53;;;2.64;100.00
20444;BME280;10381;53.730;10.010;2023-11-21T18:34:28;101808.03;;;2.68;100.00
20444;BME280;10381;53.730;10.010;2023-11-21T18:38:28;101806.41;;;2.87;100.00
20444;BME280;10381;53.730;10.010;2023-11-21T18:42:29;101803.13;;;2.82;100.00
20444;BME280;10381;53.730;10.010;2023-11-21T18:46:35;101805.34;;;2.69;100.00
20444;BME280;10381;53.730;10.010;2023-11-21T18:50:35;101825.91;;;2.56;100.00
20444;BME280;10381;53.730;10.010;2023-11-21T18:54:36;101837.03;;;2.62;100.00
20444;BME280;10381;53.730;10.010;2023-11-21T18:58:36;101837.97;;;2.61;100.00
20444;BME280;10381;53.730;10.010;2023-11-21T19:02:37;101832.94;;;2.78;100.00
20444;BME280;10381;53.730;10.010;2023-11-21T19:06:40;101842.28;;;2.84;100.00
20444;BME280;10381;53.730;10.010;2023-11-21T19:10:41;101846.75;;;2.82;100.00
20444;BME280;10381;53.730;10.010;2023-11-21T19:14:41;101852.41;;;2.71;100.00
20444;BME280;10381;53.730;10.010;2023-11-21T19:18:44;101867.63;;;2.60;100.00
20444;BME280;10381;53.730;10.010;2023-11-21T19:22:45;101883.41;;;2.58;100.00
20444;BME280;10381;53.730;10.010;2023-11-21T19:26:45;101887.69;;;2.61;100.00
20444;BME280;10381;53.730;10.010;2023-11-21T19:30:45;101894.56;;;2.63;100.00
20444;BME280;10381;53.730;10.010;2023-11-21T19:34:46;101905.53;;;2.73;100.00
20444;BME280;10381;53.730;10.010;2023-11-21T19:38:46;101916.63;;;2.80;100.00
20444;BME280;10381;53.730;10.010;2023-11-21T19:42:47;101921.75;;;2.83;100.00
20444;BME280;10381;53.730;10.010;2023-11-21T19:46:47;101923.94;;;2.93;100.00
20444;BME280;10381;53.730;10.010;2023-11-21T19:50:47;101932.66;;;2.94;100.00
20444;BME280;10381;53.730;10.010;2023-11-21T19:54:48;101930.53;;;3.04;100.00
20444;BME280;10381;53.730;10.010;2023-11-21T19:58:49;101929.31;;;3.12;100.00
20444;BME280;10381;53.730;10.010;2023-11-21T20:02:49;101941.88;;;3.04;100.00
20444;BME280;10381;53.730;10.010;2023-11-21T20:06:49;101951.16;;;3.13;100.00
20444;BME280;10381;53.730;10.010;2023-11-21T20:10:50;101959.22;;;3.07;100.00
20444;BME280;10381;53.730;10.010;2023-11-21T20:14:50;101969.41;;;3.14;100.00
20444;BME280;10381;53.730;10.010;2023-11-21T20:18:51;101976.28;;;3.17;100.00
20444;BME280;10381;53.730;10.010;2023-11-21T20:22:52;101992.66;;;3.22;100.00
20444;BME280;10381;53.730;10.010;2023-11-21T20:26:54;102003.13;;;3.22;100.00
20444;BME280;10381;53.730;10.010;2023-11-21T20:30:55;102008.38;;;3.22;100.00
20444;BME280;10381;53.730;10.010;2023-11-21T20:34:55;102022.00;;;3.08;100.00
20444;BME280;10381;53.730;10.010;2023-11-21T20:38:55;102031.72;;;3.05;100.00
20444;BME280;10381;53.730;10.010;2023-11-21T20:42:56;102034.00;;;3.14;100.00
20444;BME280;10381;53.730;10.010;2023-11-21T20:47:02;102037.81;;;3.05;100.00
20444;BME280;10381;53.730;10.010;2023-11-21T20:51:02;102047.75;;;2.95;100.00